sensor_id;sensor_type;location;lat;lon;timestamp;P1;durP1;ratioP1;P2;durP2;ratioP2
18166;SDS011;9208;42.688;23.404;2022-07-06T00:01:26;8.83;;;8.13;;
18166;SDS011;9208;42.688;23.404;2022-07-06T00:03:51;9.93;;;9.03;;
18166;SDS011;9208;42.688;23.404;2022-07-06T00:06:17;9.50;;;8.70;;
18166;SDS011;9208;42.688;23.404;2022-07-06T00:08:43;11.17;;;9.00;;
18166;SDS011;9208;42.688;23.404;2022-07-06T00:11:08;10.30;;;9.20;;
18166;SDS011;9208;42.688;23.404;2022-07-06T00:13:34;10.33;;;9.20;;
18166;SDS011;9208;42.688;23.404;2022-07-06T00:16:00;10.00;;;8.87;;
18166;SDS011;9208;42.688;23.404;2022-07-06T00:18:26;10.27;;;8.23;;
18166;SDS011;9208;42.688;23.404;2022-07-06T00:20:51;12.53;;;8.90;;
18166;SDS011;9208;42.688;23.404;2022-07-06T00:23:16;10.93;;;9.73;;
18166;SDS011;9208;42.688;23.404;2022-07-06T00:25:42;10.10;;;9.17;;
18166;SDS011;9208;42.688;23.404;2022-07-06T00:28:07;9.40;;;8.60;;
18166;SDS011;9208;42.688;23.404;2022-07-06T00:30:33;9.27;;;8.37;;
18166;SDS011;9208;42.688;23.404;2022-07-06T00:32:58;12.17;;;9.23;;
18166;SDS011;9208;42.688;23.404;2022-07-06T00:35:24;10.77;;;9.77;;
18166;SDS011;9208;42.688;23.404;2022-07-06T00:37:50;10.37;;;9.00;;
18166;SDS011;9208;42.688;23.404;2022-07-06T00:40:16;9.73;;;8.73;;
18166;SDS011;9208;42.688;23.404;2022-07-06T00:42:42;12.23;;;9.07;;
18166;SDS011;9208;42.688;23.404;2022-07-06T00:45:09;9.87;;;8.87;;
18166;SDS011;9208;42.688;23.404;2022-07-06T00:47:36;9.53;;;8.63;;
18166;SDS011;9208;42.688;23.404;2022-07-06T00:50:03;9.83;;;8.83;;
18166;SDS011;9208;42.688;23.404;2022-07-06T00:52:48;9.30;;;8.23;;
18166;SDS011;9208;42.688;23.404;2022-07-06T00:55:14;11.43;;;8.57;;
18166;SDS011;9208;42.688;23.404;2022-07-06T00:57:42;10.00;;;8.20;;
18166;SDS011;9208;42.688;23.404;2022-07-06T01:00:09;9.47;;;8.57;;
18166;SDS011;9208;42.688;23.404;2022-07-06T01:02:36;9.83;;;8.93;;
18166;SDS011;9208;42.688;23.404;2022-07-06T01:05:05;10.33;;;8.97;;
18166;SDS011;9208;42.688;23.404;2022-07-06T01:07:31;9.83;;;8.93;;
18166;SDS011;9208;42.688;23.404;2022-07-06T01:09:57;10.07;;;8.97;;
18166;SDS011;9208;42.688;23.404;2022-07-06T01:12:22;11.03;;;9.90;;
18166;SDS011;9208;42.688;23.404;2022-07-06T01:14:48;11.33;;;10.33;;
18166;SDS011;9208;42.688;23.404;2022-07-06T01:17:15;11.37;;;10.33;;
18166;SDS011;9208;42.688;23.404;2022-07-06T01:19:41;11.07;;;10.07;;
18166;SDS011;9208;42.688;23.404;2022-07-06T01:22:07;12.43;;;11.13;;
18166;SDS011;9208;42.688;23.404;2022-07-06T01:24:36;17.80;;;11.80;;
18166;SDS011;9208;42.688;23.404;2022-07-06T01:27:05;15.73;;;10.60;;
18166;SDS011;9208;42.688;23.404;2022-07-06T01:29:31;11.80;;;10.60;;
18166;SDS011;9208;42.688;23.404;2022-07-06T01:31:58;11.67;;;10.47;;
18166;SDS011;9208;42.688;23.404;2022-07-06T01:34:23;11.37;;;10.17;;
18166;SDS011;9208;42.688;23.404;2022-07-06T01:36:49;10.70;;;9.60;;
18166;SDS011;9208;42.688;23.404;2022-07-06T01:39:14;11.37;;;10.27;;
18166;SDS011;9208;42.688;23.404;2022-07-06T01:41:40;11.07;;;9.97;;
18166;SDS011;9208;42.688;23.404;2022-07-06T01:44:05;10.93;;;9.93;;
18166;SDS011;9208;42.688;23.404;2022-07-06T01:46:31;11.90;;;10.70;;
18166;SDS011;9208;42.688;23.404;2022-07-06T01:48:57;11.80;;;10.80;;
18166;SDS011;9208;42.688;23.404;2022-07-06T01:51:23;11.13;;;10.10;;
18166;SDS011;9208;42.688;23.404;2022-07-06T01:53:49;10.93;;;9.90;;
18166;SDS011;9208;42.688;23.404;2022-07-06T01:56:15;11.07;;;10.07;;
18166;SDS011;9208;42.688;23.404;2022-07-06T01:58:42;12.30;;;11.07;;
18166;SDS011;9208;42.688;23.404;2022-07-06T02:01:26;11.40;;;10.30;;
18166;SDS011;9208;42.688;23.404;2022-07-06T02:03:51;12.87;;;11.57;;
18166;SDS011;9208;42.688;23.404;2022-07-06T02:06:16;12.97;;;11.77;;
18166;SDS011;9208;42.688;23.404;2022-07-06T02:08:42;14.77;;;13.27;;
18166;SDS011;9208;42.688;23.404;2022-07-06T02:11:08;14.13;;;12.83;;
18166;SDS011;9208;42.688;23.404;2022-07-06T02:13:35;14.23;;;12.83;;
18166;SDS011;9208;42.688;23.404;2022-07-06T02:16:03;14.77;;;13.37;;
18166;SDS011;9208;42.688;23.404;2022-07-06T02:18:28;13.63;;;12.33;;
18166;SDS011;9208;42.688;23.404;2022-07-06T02:20:54;14.87;;;13.47;;
18166;SDS011;9208;42.688;23.404;2022-07-06T02:23:20;13.27;;;11.93;;
18166;SDS011;9208;42.688;23.404;2022-07-06T02:25:46;12.50;;;11.20;;
18166;SDS011;9208;42.688;23.404;2022-07-06T02:28:11;12.70;;;11.43;;
18166;SDS011;9208;42.688;23.404;2022-07-06T02:30:37;13.37;;;10.80;;
18166;SDS011;9208;42.688;23.404;2022-07-06T02:33:02;11.13;;;10.13;;
18166;SDS011;9208;42.688;23.404;2022-07-06T02:35:28;10.40;;;9.40;;
18166;SDS011;9208;42.688;23.404;2022-07-06T02:37:53;11.23;;;10.13;;
18166;SDS011;9208;42.688;23.404;2022-07-06T02:40:18;10.43;;;9.33;;
18166;SDS011;9208;42.688;23.404;2022-07-06T02:42:44;12.90;;;9.93;;
18166;SDS011;9208;42.688;23.404;2022-07-06T02:45:10;10.77;;;9.67;;
18166;SDS011;9208;42.688;23.404;2022-07-06T02:47:35;10.63;;;9.50;;
18166;SDS011;9208;42.688;23.404;2022-07-06T02:50:03;9.93;;;9.00;;
18166;SDS011;9208;42.688;23.404;2022-07-06T02:52:29;10.93;;;9.60;;
18166;SDS011;9208;42.688;23.404;2022-07-06T02:54:54;10.60;;;9.50;;
18166;SDS011;9208;42.688;23.404;2022-07-06T02:57:19;10.70;;;9.00;;
18166;SDS011;9208;42.688;23.404;2022-07-06T02:59:45;10.20;;;9.10;;
18166;SDS011;9208;42.688;23.404;2022-07-06T03:02:11;10.70;;;9.60;;
18166;SDS011;9208;42.688;23.404;2022-07-06T03:04:39;10.87;;;9.80;;
18166;SDS011;9208;42.688;23.404;2022-07-06T03:07:04;10.43;;;9.50;;
18166;SDS011;9208;42.688;23.404;2022-07-06T03:09:30;10.03;;;9.10;;
18166;SDS011;9208;42.688;23.404;2022-07-06T03:11:55;10.80;;;9.70;;
18166;SDS011;9208;42.688;23.404;2022-07-06T03:14:20;14.20;;;9.43;;
18166;SDS011;9208;42.688;23.404;2022-07-06T03:16:46;10.60;;;9.60;;
18166;SDS011;9208;42.688;23.404;2022-07-06T03:19:11;11.00;;;9.90;;
18166;SDS011;9208;42.688;23.404;2022-07-06T03:21:37;11.80;;;10.60;;
18166;SDS011;9208;42.688;23.404;2022-07-06T03:24:02;11.57;;;10.50;;
18166;SDS011;9208;42.688;23.404;2022-07-06T03:26:28;11.60;;;10.47;;
18166;SDS011;9208;42.688;23.404;2022-07-06T03:28:53;11.47;;;10.37;;
18166;SDS011;9208;42.688;23.404;2022-07-06T03:31:19;11.67;;;10.47;;
18166;SDS011;9208;42.688;23.404;2022-07-06T03:33:44;11.40;;;10.30;;
18166;SDS011;9208;42.688;23.404;2022-07-06T03:36:10;12.10;;;10.47;;
18166;SDS011;9208;42.688;23.404;2022-07-06T03:38:35;11.03;;;10.10;;
18166;SDS011;9208;42.688;23.404;2022-07-06T03:41:01;11.90;;;10.50;;
18166;SDS011;9208;42.688;23.404;2022-07-06T03:43:27;12.07;;;10.80;;
18166;SDS011;9208;42.688;23.404;2022-07-06T03:45:52;11.33;;;10.10;;
18166;SDS011;9208;42.688;23.404;2022-07-06T03:48:18;10.33;;;9.30;;
18166;SDS011;9208;42.688;23.404;2022-07-06T03:50:43;10.17;;;8.53;;
18166;SDS011;9208;42.688;23.404;2022-07-06T03:53:08;11.37;;;9.80;;
18166;SDS011;9208;42.688;23.404;2022-07-06T03:55:34;10.47;;;9.40;;
18166;SDS011;9208;42.688;23.404;2022-07-06T03:57:59;10.07;;;9.00;;
18166;SDS011;9208;42.688;23.404;2022-07-06T04:00:25;10.23;;;9.17;;
18166;SDS011;9208;42.688;23.404;2022-07-06T04:02:50;10.20;;;9.20;;
18166;SDS011;9208;42.688;23.404;2022-07-06T04:05:15;9.90;;;8.90;;
18166;SDS011;9208;42.688;23.404;2022-07-06T04:07:46;10.50;;;9.60;;
18166;SDS011;9208;42.688;23.404;2022-07-06T04:10:12;10.30;;;9.30;;
18166;SDS011;9208;42.688;23.404;2022-07-06T04:12:41;9.63;;;8.73;;
18166;SDS011;9208;42.688;23.404;2022-07-06T04:15:07;11.20;;;9.57;;
18166;SDS011;9208;42.688;23.404;2022-07-06T04:17:33;10.20;;;9.17;;
18166;SDS011;9208;42.688;23.404;2022-07-06T04:20:17;8.30;;;7.50;;
18166;SDS011;9208;42.688;23.404;2022-07-06T04:22:43;8.33;;;7.27;;
18166;SDS011;9208;42.688;23.404;2022-07-06T04:25:08;9.60;;;6.60;;
18166;SDS011;9208;42.688;23.404;2022-07-06T04:27:34;7.57;;;6.83;;
18166;SDS011;9208;42.688;23.404;2022-07-06T04:30:03;8.90;;;7.50;;
18166;SDS011;9208;42.688;23.404;2022-07-06T04:32:30;7.03;;;6.33;;
18166;SDS011;9208;42.688;23.404;2022-07-06T04:34:55;6.90;;;6.20;;
18166;SDS011;9208;42.688;23.404;2022-07-06T04:37:21;7.23;;;6.50;;
18166;SDS011;9208;42.688;23.404;2022-07-06T04:39:46;6.93;;;6.30;;
18166;SDS011;9208;42.688;23.404;2022-07-06T04:42:11;7.20;;;6.50;;
18166;SDS011;9208;42.688;23.404;2022-07-06T04:44:37;7.17;;;6.47;;
18166;SDS011;9208;42.688;23.404;2022-07-06T04:47:02;6.90;;;6.17;;
18166;SDS011;9208;42.688;23.404;2022-07-06T04:49:28;7.10;;;6.50;;
18166;SDS011;9208;42.688;23.404;2022-07-06T04:51:55;7.70;;;6.93;;
18166;SDS011;9208;42.688;23.404;2022-07-06T04:54:21;11.77;;;7.00;;
18166;SDS011;9208;42.688;23.404;2022-07-06T04:56:46;9.47;;;7.43;;
18166;SDS011;9208;42.688;23.404;2022-07-06T04:59:12;8.20;;;7.37;;
18166;SDS011;9208;42.688;23.404;2022-07-06T05:01:37;8.43;;;7.60;;
18166;SDS011;9208;42.688;23.404;2022-07-06T05:04:03;9.23;;;8.20;;
18166;SDS011;9208;42.688;23.404;2022-07-06T05:06:28;9.63;;;8.73;;
18166;SDS011;9208;42.688;23.404;2022-07-06T05:08:54;13.33;;;9.33;;
18166;SDS011;9208;42.688;23.404;2022-07-06T05:11:19;14.90;;;9.67;;
18166;SDS011;9208;42.688;23.404;2022-07-06T05:13:45;12.20;;;9.27;;
18166;SDS011;9208;42.688;23.404;2022-07-06T05:16:10;10.77;;;9.17;;
18166;SDS011;9208;42.688;23.404;2022-07-06T05:18:36;11.70;;;9.87;;
18166;SDS011;9208;42.688;23.404;2022-07-06T05:21:01;10.80;;;9.70;;
18166;SDS011;9208;42.688;23.404;2022-07-06T05:23:26;11.57;;;10.37;;
18166;SDS011;9208;42.688;23.404;2022-07-06T05:25:53;10.50;;;9.43;;
18166;SDS011;9208;42.688;23.404;2022-07-06T05:28:18;11.63;;;10.43;;
18166;SDS011;9208;42.688;23.404;2022-07-06T05:30:44;12.43;;;9.97;;
18166;SDS011;9208;42.688;23.404;2022-07-06T05:33:09;11.83;;;10.63;;
18166;SDS011;9208;42.688;23.404;2022-07-06T05:35:35;11.03;;;10.03;;
18166;SDS011;9208;42.688;23.404;2022-07-06T05:38:00;13.50;;;10.97;;
18166;SDS011;9208;42.688;23.404;2022-07-06T05:40:25;12.60;;;11.30;;
18166;SDS011;9208;42.688;23.404;2022-07-06T05:42:51;11.40;;;10.30;;
18166;SDS011;9208;42.688;23.404;2022-07-06T05:45:17;11.80;;;10.60;;
18166;SDS011;9208;42.688;23.404;2022-07-06T05:47:42;12.87;;;10.13;;
18166;SDS011;9208;42.688;23.404;2022-07-06T05:50:26;11.87;;;10.77;;
18166;SDS011;9208;42.688;23.404;2022-07-06T05:52:56;10.47;;;9.43;;
18166;SDS011;9208;42.688;23.404;2022-07-06T05:55:26;11.03;;;10.03;;
18166;SDS011;9208;42.688;23.404;2022-07-06T05:57:52;10.10;;;9.10;;
18166;SDS011;9208;42.688;23.404;2022-07-06T06:00:19;10.33;;;9.33;;
18166;SDS011;9208;42.688;23.404;2022-07-06T06:02:46;10.20;;;9.30;;
18166;SDS011;9208;42.688;23.404;2022-07-06T06:05:13;9.80;;;8.93;;
18166;SDS011;9208;42.688;23.404;2022-07-06T06:07:39;10.37;;;9.37;;
18166;SDS011;9208;42.688;23.404;2022-07-06T06:10:05;10.97;;;9.83;;
18166;SDS011;9208;42.688;23.404;2022-07-06T06:12:33;10.57;;;9.50;;
18166;SDS011;9208;42.688;23.404;2022-07-06T06:14:58;10.00;;;9.00;;
18166;SDS011;9208;42.688;23.404;2022-07-06T06:17:24;9.80;;;8.90;;
18166;SDS011;9208;42.688;23.404;2022-07-06T06:19:49;8.93;;;8.20;;
18166;SDS011;9208;42.688;23.404;2022-07-06T06:22:15;9.90;;;9.00;;
18166;SDS011;9208;42.688;23.404;2022-07-06T06:24:40;9.73;;;8.83;;
18166;SDS011;9208;42.688;23.404;2022-07-06T06:27:05;12.13;;;9.73;;
18166;SDS011;9208;42.688;23.404;2022-07-06T06:29:31;10.97;;;9.87;;
18166;SDS011;9208;42.688;23.404;2022-07-06T06:31:57;9.90;;;8.80;;
18166;SDS011;9208;42.688;23.404;2022-07-06T06:34:22;11.20;;;10.10;;
18166;SDS011;9208;42.688;23.404;2022-07-06T06:36:48;11.03;;;9.97;;
18166;SDS011;9208;42.688;23.404;2022-07-06T06:39:17;10.47;;;9.17;;
18166;SDS011;9208;42.688;23.404;2022-07-06T06:41:42;10.67;;;9.57;;
18166;SDS011;9208;42.688;23.404;2022-07-06T06:44:07;10.63;;;9.70;;
18166;SDS011;9208;42.688;23.404;2022-07-06T06:46:33;11.37;;;10.37;;
18166;SDS011;9208;42.688;23.404;2022-07-06T06:48:59;11.17;;;10.07;;
18166;SDS011;9208;42.688;23.404;2022-07-06T06:51:24;11.47;;;10.30;;
18166;SDS011;9208;42.688;23.404;2022-07-06T06:53:50;10.70;;;9.70;;
18166;SDS011;9208;42.688;23.404;2022-07-06T06:56:15;10.73;;;9.73;;
18166;SDS011;9208;42.688;23.404;2022-07-06T06:58:41;10.60;;;9.60;;
18166;SDS011;9208;42.688;23.404;2022-07-06T07:01:07;10.33;;;9.33;;
18166;SDS011;9208;42.688;23.404;2022-07-06T07:03:33;9.80;;;8.90;;
18166;SDS011;9208;42.688;23.404;2022-07-06T07:05:59;10.37;;;9.47;;
18166;SDS011;9208;42.688;23.404;2022-07-06T07:08:24;10.20;;;9.20;;
18166;SDS011;9208;42.688;23.404;2022-07-06T07:10:50;9.73;;;8.93;;
18166;SDS011;9208;42.688;23.404;2022-07-06T07:13:16;10.03;;;8.83;;
18166;SDS011;9208;42.688;23.404;2022-07-06T07:15:41;10.27;;;9.30;;
18166;SDS011;9208;42.688;23.404;2022-07-06T07:18:07;9.50;;;8.63;;
18166;SDS011;9208;42.688;23.404;2022-07-06T07:20:32;9.63;;;8.67;;
18166;SDS011;9208;42.688;23.404;2022-07-06T07:22:58;10.27;;;9.20;;
18166;SDS011;9208;42.688;23.404;2022-07-06T07:25:24;10.37;;;9.47;;
18166;SDS011;9208;42.688;23.404;2022-07-06T07:27:50;10.03;;;9.20;;
18166;SDS011;9208;42.688;23.404;2022-07-06T07:30:16;9.73;;;8.77;;
18166;SDS011;9208;42.688;23.404;2022-07-06T07:32:42;11.97;;;9.80;;
18166;SDS011;9208;42.688;23.404;2022-07-06T07:35:07;14.60;;;9.97;;
18166;SDS011;9208;42.688;23.404;2022-07-06T07:37:34;10.93;;;9.80;;
18166;SDS011;9208;42.688;23.404;2022-07-06T07:39:59;10.90;;;9.80;;
18166;SDS011;9208;42.688;23.404;2022-07-06T07:42:25;11.03;;;10.03;;
18166;SDS011;9208;42.688;23.404;2022-07-06T07:44:51;11.53;;;10.43;;
18166;SDS011;9208;42.688;23.404;2022-07-06T07:47:16;11.43;;;10.27;;
18166;SDS011;9208;42.688;23.404;2022-07-06T07:49:42;9.73;;;8.87;;
18166;SDS011;9208;42.688;23.404;2022-07-06T07:52:07;14.77;;;10.80;;
18166;SDS011;9208;42.688;23.404;2022-07-06T07:54:33;16.00;;;10.53;;
18166;SDS011;9208;42.688;23.404;2022-07-06T07:56:58;11.13;;;9.57;;
18166;SDS011;9208;42.688;23.404;2022-07-06T07:59:24;10.23;;;9.23;;
18166;SDS011;9208;42.688;23.404;2022-07-06T08:01:50;11.40;;;9.67;;
18166;SDS011;9208;42.688;23.404;2022-07-06T08:04:16;11.67;;;8.93;;
18166;SDS011;9208;42.688;23.404;2022-07-06T08:06:41;11.03;;;9.87;;
18166;SDS011;9208;42.688;23.404;2022-07-06T08:09:07;9.73;;;8.80;;
18166;SDS011;9208;42.688;23.404;2022-07-06T08:11:35;10.07;;;9.20;;
18166;SDS011;9208;42.688;23.404;2022-07-06T08:14:01;10.33;;;9.30;;
18166;SDS011;9208;42.688;23.404;2022-07-06T08:16:27;10.30;;;9.47;;
18166;SDS011;9208;42.688;23.404;2022-07-06T08:18:53;10.40;;;9.50;;
18166;SDS011;9208;42.688;23.404;2022-07-06T08:21:19;11.60;;;9.57;;
18166;SDS011;9208;42.688;23.404;2022-07-06T08:23:45;10.17;;;9.17;;
18166;SDS011;9208;42.688;23.404;2022-07-06T08:26:10;10.33;;;9.23;;
18166;SDS011;9208;42.688;23.404;2022-07-06T08:28:36;12.07;;;9.43;;
18166;SDS011;9208;42.688;23.404;2022-07-06T08:31:01;10.90;;;9.80;;
18166;SDS011;9208;42.688;23.404;2022-07-06T08:33:27;9.67;;;8.77;;
18166;SDS011;9208;42.688;23.404;2022-07-06T08:35:52;10.70;;;9.67;;
18166;SDS011;9208;42.688;23.404;2022-07-06T08:38:18;10.67;;;9.60;;
18166;SDS011;9208;42.688;23.404;2022-07-06T08:40:43;13.27;;;10.30;;
18166;SDS011;9208;42.688;23.404;2022-07-06T08:43:12;10.47;;;9.47;;
18166;SDS011;9208;42.688;23.404;2022-07-06T08:45:39;10.00;;;9.10;;
18166;SDS011;9208;42.688;23.404;2022-07-06T08:48:05;9.73;;;8.93;;
18166;SDS011;9208;42.688;23.404;2022-07-06T08:50:33;11.80;;;10.70;;
18166;SDS011;9208;42.688;23.404;2022-07-06T08:52:59;10.73;;;9.73;;
18166;SDS011;9208;42.688;23.404;2022-07-06T08:55:25;10.30;;;9.50;;
18166;SDS011;9208;42.688;23.404;2022-07-06T08:57:52;10.30;;;9.17;;
18166;SDS011;9208;42.688;23.404;2022-07-06T09:00:19;10.33;;;9.33;;
18166;SDS011;9208;42.688;23.404;2022-07-06T09:02:45;10.20;;;8.13;;
18166;SDS011;9208;42.688;23.404;2022-07-06T09:05:13;9.50;;;8.70;;
18166;SDS011;9208;42.688;23.404;2022-07-06T09:07:40;20.23;;;12.33;;
18166;SDS011;9208;42.688;23.404;2022-07-06T09:10:05;11.33;;;10.23;;
18166;SDS011;9208;42.688;23.404;2022-07-06T09:12:33;10.43;;;9.00;;
18166;SDS011;9208;42.688;23.404;2022-07-06T09:14:58;17.33;;;11.17;;
18166;SDS011;9208;42.688;23.404;2022-07-06T09:17:26;11.10;;;9.87;;
18166;SDS011;9208;42.688;23.404;2022-07-06T09:19:53;10.57;;;9.47;;
18166;SDS011;9208;42.688;23.404;2022-07-06T09:22:26;9.70;;;8.70;;
18166;SDS011;9208;42.688;23.404;2022-07-06T09:25:00;12.23;;;10.33;;
18166;SDS011;9208;42.688;23.404;2022-07-06T09:27:28;15.27;;;10.57;;
18166;SDS011;9208;42.688;23.404;2022-07-06T09:29:54;15.53;;;11.20;;
18166;SDS011;9208;42.688;23.404;2022-07-06T09:32:19;12.30;;;11.20;;
18166;SDS011;9208;42.688;23.404;2022-07-06T09:34:46;11.70;;;10.57;;
18166;SDS011;9208;42.688;23.404;2022-07-06T09:37:13;12.37;;;11.17;;
18166;SDS011;9208;42.688;23.404;2022-07-06T09:39:39;11.63;;;10.60;;
18166;SDS011;9208;42.688;23.404;2022-07-06T09:42:05;11.07;;;10.23;;
18166;SDS011;9208;42.688;23.404;2022-07-06T09:44:39;13.13;;;10.80;;
18166;SDS011;9208;42.688;23.404;2022-07-06T09:47:07;11.33;;;10.37;;
18166;SDS011;9208;42.688;23.404;2022-07-06T09:49:34;10.70;;;9.70;;
18166;SDS011;9208;42.688;23.404;2022-07-06T09:52:01;11.67;;;10.33;;
18166;SDS011;9208;42.688;23.404;2022-07-06T09:54:29;11.17;;;10.27;;
18166;SDS011;9208;42.688;23.404;2022-07-06T09:56:55;12.00;;;10.90;;
18166;SDS011;9208;42.688;23.404;2022-07-06T09:59:23;11.73;;;10.60;;
18166;SDS011;9208;42.688;23.404;2022-07-06T10:01:51;11.70;;;10.60;;
18166;SDS011;9208;42.688;23.404;2022-07-06T10:04:19;11.17;;;10.13;;
18166;SDS011;9208;42.688;23.404;2022-07-06T10:06:45;13.13;;;11.90;;
18166;SDS011;9208;42.688;23.404;2022-07-06T10:09:12;13.73;;;12.43;;
18166;SDS011;9208;42.688;23.404;2022-07-06T10:11:49;13.73;;;11.77;;
18166;SDS011;9208;42.688;23.404;2022-07-06T10:14:20;12.90;;;11.80;;
18166;SDS011;9208;42.688;23.404;2022-07-06T10:16:47;13.20;;;11.97;;
18166;SDS011;9208;42.688;23.404;2022-07-06T10:19:14;12.40;;;11.40;;
18166;SDS011;9208;42.688;23.404;2022-07-06T10:21:40;12.47;;;11.43;;
18166;SDS011;9208;42.688;23.404;2022-07-06T10:24:07;13.50;;;12.17;;
18166;SDS011;9208;42.688;23.404;2022-07-06T10:26:34;12.43;;;11.33;;
18166;SDS011;9208;42.688;23.404;2022-07-06T10:29:03;13.57;;;11.23;;
18166;SDS011;9208;42.688;23.404;2022-07-06T10:31:31;12.60;;;11.37;;
18166;SDS011;9208;42.688;23.404;2022-07-06T10:34:01;14.20;;;12.80;;
18166;SDS011;9208;42.688;23.404;2022-07-06T10:36:36;13.67;;;12.37;;
18166;SDS011;9208;42.688;23.404;2022-07-06T10:39:03;12.90;;;11.70;;
18166;SDS011;9208;42.688;23.404;2022-07-06T10:41:49;13.10;;;11.83;;
18166;SDS011;9208;42.688;23.404;2022-07-06T10:44:19;12.73;;;11.63;;
18166;SDS011;9208;42.688;23.404;2022-07-06T10:46:53;12.27;;;11.17;;
18166;SDS011;9208;42.688;23.404;2022-07-06T10:49:23;12.83;;;11.63;;
18166;SDS011;9208;42.688;23.404;2022-07-06T10:51:50;11.53;;;10.63;;
18166;SDS011;9208;42.688;23.404;2022-07-06T10:54:17;11.80;;;10.80;;
18166;SDS011;9208;42.688;23.404;2022-07-06T10:56:48;11.73;;;10.63;;
18166;SDS011;9208;42.688;23.404;2022-07-06T10:59:22;12.10;;;10.87;;
18166;SDS011;9208;42.688;23.404;2022-07-06T11:04:43;11.70;;;10.67;;
18166;SDS011;9208;42.688;23.404;2022-07-06T11:07:12;13.47;;;12.07;;
18166;SDS011;9208;42.688;23.404;2022-07-06T11:09:38;13.03;;;11.93;;
18166;SDS011;9208;42.688;23.404;2022-07-06T11:14:46;13.30;;;12.20;;
18166;SDS011;9208;42.688;23.404;2022-07-06T11:17:12;13.60;;;12.20;;
18166;SDS011;9208;42.688;23.404;2022-07-06T11:19:47;13.10;;;12.00;;
18166;SDS011;9208;42.688;23.404;2022-07-06T11:22:15;12.47;;;11.47;;
18166;SDS011;9208;42.688;23.404;2022-07-06T11:24:42;12.37;;;11.20;;
18166;SDS011;9208;42.688;23.404;2022-07-06T11:27:08;11.50;;;10.50;;
18166;SDS011;9208;42.688;23.404;2022-07-06T11:29:34;12.80;;;11.80;;
18166;SDS011;9208;42.688;23.404;2022-07-06T11:32:02;12.73;;;11.60;;
18166;SDS011;9208;42.688;23.404;2022-07-06T11:34:32;12.83;;;11.73;;
18166;SDS011;9208;42.688;23.404;2022-07-06T11:37:03;12.47;;;11.27;;
18166;SDS011;9208;42.688;23.404;2022-07-06T11:39:31;13.57;;;12.20;;
18166;SDS011;9208;42.688;23.404;2022-07-06T11:41:58;13.60;;;12.17;;
18166;SDS011;9208;42.688;23.404;2022-07-06T11:44:29;13.73;;;12.63;;
18166;SDS011;9208;42.688;23.404;2022-07-06T11:46:54;13.03;;;12.03;;
18166;SDS011;9208;42.688;23.404;2022-07-06T11:49:22;13.47;;;12.20;;
18166;SDS011;9208;42.688;23.404;2022-07-06T11:51:48;12.37;;;11.37;;
18166;SDS011;9208;42.688;23.404;2022-07-06T11:54:20;12.73;;;11.60;;
18166;SDS011;9208;42.688;23.404;2022-07-06T11:59:25;13.17;;;12.07;;
18166;SDS011;9208;42.688;23.404;2022-07-06T12:02:04;13.00;;;12.00;;
18166;SDS011;9208;42.688;23.404;2022-07-06T12:04:31;13.27;;;12.20;;
18166;SDS011;9208;42.688;23.404;2022-07-06T12:07:16;13.57;;;12.53;;
18166;SDS011;9208;42.688;23.404;2022-07-06T12:09:45;12.77;;;11.60;;
18166;SDS011;9208;42.688;23.404;2022-07-06T12:12:12;13.33;;;12.17;;
18166;SDS011;9208;42.688;23.404;2022-07-06T12:14:41;11.77;;;10.77;;
18166;SDS011;9208;42.688;23.404;2022-07-06T12:17:08;12.67;;;11.67;;
18166;SDS011;9208;42.688;23.404;2022-07-06T12:19:35;13.10;;;11.80;;
18166;SDS011;9208;42.688;23.404;2022-07-06T12:22:01;11.93;;;11.03;;
18166;SDS011;9208;42.688;23.404;2022-07-06T12:24:28;12.57;;;11.33;;
18166;SDS011;9208;42.688;23.404;2022-07-06T12:26:57;11.70;;;10.80;;
18166;SDS011;9208;42.688;23.404;2022-07-06T12:29:23;11.00;;;10.20;;
18166;SDS011;9208;42.688;23.404;2022-07-06T12:34:20;11.60;;;10.67;;
18166;SDS011;9208;42.688;23.404;2022-07-06T12:36:47;11.63;;;10.73;;
18166;SDS011;9208;42.688;23.404;2022-07-06T12:39:18;10.80;;;9.90;;
18166;SDS011;9208;42.688;23.404;2022-07-06T12:41:51;10.70;;;9.90;;
18166;SDS011;9208;42.688;23.404;2022-07-06T12:44:18;11.37;;;10.47;;
18166;SDS011;9208;42.688;23.404;2022-07-06T12:46:47;10.70;;;9.80;;
18166;SDS011;9208;42.688;23.404;2022-07-06T12:49:18;10.10;;;9.40;;
18166;SDS011;9208;42.688;23.404;2022-07-06T12:51:57;10.03;;;9.03;;
18166;SDS011;9208;42.688;23.404;2022-07-06T12:54:32;9.67;;;8.77;;
18166;SDS011;9208;42.688;23.404;2022-07-06T12:59:39;10.87;;;9.97;;
18166;SDS011;9208;42.688;23.404;2022-07-06T13:02:17;10.40;;;9.60;;
18166;SDS011;9208;42.688;23.404;2022-07-06T13:04:53;10.50;;;9.20;;
18166;SDS011;9208;42.688;23.404;2022-07-06T13:07:30;9.07;;;8.17;;
18166;SDS011;9208;42.688;23.404;2022-07-06T13:09:57;8.53;;;7.93;;
18166;SDS011;9208;42.688;23.404;2022-07-06T13:12:23;8.93;;;8.23;;
18166;SDS011;9208;42.688;23.404;2022-07-06T13:14:49;9.07;;;8.30;;
18166;SDS011;9208;42.688;23.404;2022-07-06T13:17:15;8.93;;;8.13;;
18166;SDS011;9208;42.688;23.404;2022-07-06T13:19:41;8.97;;;8.27;;
18166;SDS011;9208;42.688;23.404;2022-07-06T13:22:07;7.67;;;7.07;;
18166;SDS011;9208;42.688;23.404;2022-07-06T13:24:32;7.90;;;7.30;;
18166;SDS011;9208;42.688;23.404;2022-07-06T13:26:58;7.97;;;7.30;;
18166;SDS011;9208;42.688;23.404;2022-07-06T13:29:23;7.80;;;7.10;;
18166;SDS011;9208;42.688;23.404;2022-07-06T13:31:50;7.10;;;6.53;;
18166;SDS011;9208;42.688;23.404;2022-07-06T13:34:15;7.77;;;6.93;;
18166;SDS011;9208;42.688;23.404;2022-07-06T13:36:41;6.70;;;6.20;;
18166;SDS011;9208;42.688;23.404;2022-07-06T13:39:07;6.60;;;6.00;;
18166;SDS011;9208;42.688;23.404;2022-07-06T13:41:33;5.57;;;5.27;;
18166;SDS011;9208;42.688;23.404;2022-07-06T13:43:59;5.47;;;4.97;;
18166;SDS011;9208;42.688;23.404;2022-07-06T13:46:26;4.70;;;4.30;;
18166;SDS011;9208;42.688;23.404;2022-07-06T13:48:54;4.73;;;4.40;;
18166;SDS011;9208;42.688;23.404;2022-07-06T13:51:21;4.33;;;3.93;;
18166;SDS011;9208;42.688;23.404;2022-07-06T13:53:47;3.83;;;3.63;;
18166;SDS011;9208;42.688;23.404;2022-07-06T13:56:12;3.43;;;3.17;;
18166;SDS011;9208;42.688;23.404;2022-07-06T13:58:38;3.70;;;3.40;;
18166;SDS011;9208;42.688;23.404;2022-07-06T14:01:03;7.33;;;4.30;;
18166;SDS011;9208;42.688;23.404;2022-07-06T14:03:29;4.60;;;3.70;;
18166;SDS011;9208;42.688;23.404;2022-07-06T14:05:58;4.07;;;3.63;;
18166;SDS011;9208;42.688;23.404;2022-07-06T14:08:25;3.53;;;3.33;;
18166;SDS011;9208;42.688;23.404;2022-07-06T14:10:51;3.37;;;3.17;;
18166;SDS011;9208;42.688;23.404;2022-07-06T14:13:18;3.10;;;2.90;;
18166;SDS011;9208;42.688;23.404;2022-07-06T14:15:44;2.90;;;2.70;;
18166;SDS011;9208;42.688;23.404;2022-07-06T14:18:10;4.27;;;3.00;;
18166;SDS011;9208;42.688;23.404;2022-07-06T14:20:36;4.10;;;2.67;;
18166;SDS011;9208;42.688;23.404;2022-07-06T14:23:01;2.97;;;2.80;;
18166;SDS011;9208;42.688;23.404;2022-07-06T14:25:27;2.90;;;2.70;;
18166;SDS011;9208;42.688;23.404;2022-07-06T14:27:53;2.83;;;2.63;;
18166;SDS011;9208;42.688;23.404;2022-07-06T14:30:18;3.07;;;2.67;;
18166;SDS011;9208;42.688;23.404;2022-07-06T14:32:44;3.63;;;2.67;;
18166;SDS011;9208;42.688;23.404;2022-07-06T14:35:10;2.80;;;2.60;;
18166;SDS011;9208;42.688;23.404;2022-07-06T14:37:36;5.33;;;3.03;;
18166;SDS011;9208;42.688;23.404;2022-07-06T14:40:02;2.93;;;2.73;;
18166;SDS011;9208;42.688;23.404;2022-07-06T14:42:28;5.50;;;3.00;;
18166;SDS011;9208;42.688;23.404;2022-07-06T14:44:54;2.80;;;2.60;;